<?xml version="1.0" encoding="UTF-8" standalone="no" ?>
<gpx xmlns="http://www.topografix.com/GPX/1/1" xmlns:xsi="http://www.w3.org/2001/XMLSchema-instance" xsi:schemaLocation="http://www.topografix.com/GPX/1/1 http://www.topografix.com/GPX/1/1/gpx.xsd" version="1.1" creator="VisuGPX - https://www.visugpx.com">
  <metadata>
    <name>ARQUES LA SEYNE SUR MER 1497 KM</name>
    <desc><![CDATA[Rando de Arques dans le Pas de Calais jusque La Seyne sur Mer dans le Var, 1497 km]]></desc>
  </metadata>
  <trk>
    <name><![CDATA[6- Péronne St Quentin 32.6 km]]></name>
    <extensions>
      <line xmlns="http://www.topografix.com/GPX/gpx_style/0/2">
        <color>FF00FF</color>
        <width>4</width>
      </line>
    </extensions>
    <trkseg>
      <trkpt lat="49.93414" lon="2.94122">
        <ele>56</ele>
        <time>2021-10-05T17:55:45+02:00</time>
      </trkpt>
      <trkpt lat="49.93142" lon="2.9357">
        <ele>54</ele>
        <time>2021-10-05T17:55:50+02:00</time>
      </trkpt>
      <trkpt lat="49.93031" lon="2.93682">
        <ele>57</ele>
        <time>2021-10-05T17:55:55+02:00</time>
      </trkpt>
      <trkpt lat="49.92892" lon="2.9391">
        <ele>50</ele>
        <time>2021-10-05T17:56:00+02:00</time>
      </trkpt>
      <trkpt lat="49.92788" lon="2.9405">
        <ele>51</ele>
        <time>2021-10-05T17:56:05+02:00</time>
      </trkpt>
      <trkpt lat="49.92803" lon="2.94154">
        <ele>50</ele>
        <time>2021-10-05T17:56:10+02:00</time>
      </trkpt>
      <trkpt lat="49.92905" lon="2.9431">
        <ele>50</ele>
        <time>2021-10-05T17:56:15+02:00</time>
      </trkpt>
      <trkpt lat="49.92908" lon="2.94363">
        <ele>50</ele>
        <time>2021-10-05T17:56:20+02:00</time>
      </trkpt>
      <trkpt lat="49.92993" lon="2.94623">
        <ele>51</ele>
        <time>2021-10-05T17:56:25+02:00</time>
      </trkpt>
      <trkpt lat="49.92992" lon="2.94874">
        <ele>51</ele>
        <time>2021-10-05T17:56:30+02:00</time>
      </trkpt>
      <trkpt lat="49.92957" lon="2.95072">
        <ele>50</ele>
        <time>2021-10-05T17:56:35+02:00</time>
      </trkpt>
      <trkpt lat="49.92878" lon="2.95251">
        <ele>52</ele>
        <time>2021-10-05T17:56:40+02:00</time>
      </trkpt>
      <trkpt lat="49.92653" lon="2.9552">
        <ele>53</ele>
        <time>2021-10-05T17:56:45+02:00</time>
      </trkpt>
      <trkpt lat="49.92457" lon="2.95786">
        <ele>52</ele>
        <time>2021-10-05T17:56:50+02:00</time>
      </trkpt>
      <trkpt lat="49.9239" lon="2.95889">
        <ele>53</ele>
        <time>2021-10-05T17:56:55+02:00</time>
      </trkpt>
      <trkpt lat="49.92218" lon="2.9614">
        <ele>55</ele>
        <time>2021-10-05T17:57:00+02:00</time>
      </trkpt>
      <trkpt lat="49.92015" lon="2.96453">
        <ele>59</ele>
        <time>2021-10-05T17:57:05+02:00</time>
      </trkpt>
      <trkpt lat="49.91817" lon="2.9675">
        <ele>61</ele>
        <time>2021-10-05T17:57:10+02:00</time>
      </trkpt>
      <trkpt lat="49.91686" lon="2.96962">
        <ele>64</ele>
        <time>2021-10-05T17:57:15+02:00</time>
      </trkpt>
      <trkpt lat="49.91616" lon="2.97183">
        <ele>61</ele>
        <time>2021-10-05T17:57:20+02:00</time>
      </trkpt>
      <trkpt lat="49.91426" lon="2.98546">
        <ele>57</ele>
        <time>2021-10-05T17:57:25+02:00</time>
      </trkpt>
      <trkpt lat="49.91412" lon="2.98856">
        <ele>60</ele>
        <time>2021-10-05T17:57:30+02:00</time>
      </trkpt>
      <trkpt lat="49.91445" lon="2.99974">
        <ele>59</ele>
        <time>2021-10-05T17:57:35+02:00</time>
      </trkpt>
      <trkpt lat="49.91523" lon="3.00448">
        <ele>61</ele>
        <time>2021-10-05T17:57:40+02:00</time>
      </trkpt>
      <trkpt lat="49.91507" lon="3.00508">
        <ele>61</ele>
        <time>2021-10-05T17:57:45+02:00</time>
      </trkpt>
      <trkpt lat="49.91546" lon="3.00638">
        <ele>62</ele>
        <time>2021-10-05T17:57:50+02:00</time>
      </trkpt>
      <trkpt lat="49.91488" lon="3.00722">
        <ele>66</ele>
        <time>2021-10-05T17:57:55+02:00</time>
      </trkpt>
      <trkpt lat="49.91482" lon="3.00843">
        <ele>72</ele>
        <time>2021-10-05T17:58:00+02:00</time>
      </trkpt>
      <trkpt lat="49.91513" lon="3.00885">
        <ele>71</ele>
        <time>2021-10-05T17:58:05+02:00</time>
      </trkpt>
      <trkpt lat="49.91496" lon="3.00963">
        <ele>71</ele>
        <time>2021-10-05T17:58:10+02:00</time>
      </trkpt>
      <trkpt lat="49.91428" lon="3.01033">
        <ele>75</ele>
        <time>2021-10-05T17:58:15+02:00</time>
      </trkpt>
      <trkpt lat="49.91385" lon="3.01174">
        <ele>74</ele>
        <time>2021-10-05T17:58:20+02:00</time>
      </trkpt>
      <trkpt lat="49.91238" lon="3.01295">
        <ele>69</ele>
        <time>2021-10-05T17:58:25+02:00</time>
      </trkpt>
      <trkpt lat="49.91181" lon="3.01467">
        <ele>69</ele>
        <time>2021-10-05T17:58:30+02:00</time>
      </trkpt>
      <trkpt lat="49.91016" lon="3.01741">
        <ele>68</ele>
        <time>2021-10-05T17:58:35+02:00</time>
      </trkpt>
      <trkpt lat="49.90896" lon="3.02039">
        <ele>73</ele>
        <time>2021-10-05T17:58:40+02:00</time>
      </trkpt>
      <trkpt lat="49.90814" lon="3.0226">
        <ele>76</ele>
        <time>2021-10-05T17:58:45+02:00</time>
      </trkpt>
      <trkpt lat="49.90597" lon="3.02615">
        <ele>71</ele>
        <time>2021-10-05T17:58:50+02:00</time>
      </trkpt>
      <trkpt lat="49.90504" lon="3.02642">
        <ele>75</ele>
        <time>2021-10-05T17:58:55+02:00</time>
      </trkpt>
      <trkpt lat="49.90346" lon="3.0289">
        <ele>82</ele>
        <time>2021-10-05T17:59:00+02:00</time>
      </trkpt>
      <trkpt lat="49.90228" lon="3.02986">
        <ele>85</ele>
        <time>2021-10-05T17:59:05+02:00</time>
      </trkpt>
      <trkpt lat="49.90156" lon="3.03179">
        <ele>82</ele>
        <time>2021-10-05T17:59:10+02:00</time>
      </trkpt>
      <trkpt lat="49.89552" lon="3.04071">
        <ele>96</ele>
        <time>2021-10-05T17:59:15+02:00</time>
      </trkpt>
      <trkpt lat="49.89502" lon="3.04089">
        <ele>98</ele>
        <time>2021-10-05T17:59:20+02:00</time>
      </trkpt>
      <trkpt lat="49.89492" lon="3.04207">
        <ele>98</ele>
        <time>2021-10-05T17:59:25+02:00</time>
      </trkpt>
      <trkpt lat="49.89311" lon="3.04195">
        <ele>95</ele>
        <time>2021-10-05T17:59:30+02:00</time>
      </trkpt>
      <trkpt lat="49.89306" lon="3.04457">
        <ele>95</ele>
        <time>2021-10-05T17:59:35+02:00</time>
      </trkpt>
      <trkpt lat="49.89251" lon="3.04695">
        <ele>94</ele>
        <time>2021-10-05T17:59:40+02:00</time>
      </trkpt>
      <trkpt lat="49.89265" lon="3.05084">
        <ele>91</ele>
        <time>2021-10-05T17:59:45+02:00</time>
      </trkpt>
      <trkpt lat="49.89181" lon="3.05642">
        <ele>94</ele>
        <time>2021-10-05T17:59:50+02:00</time>
      </trkpt>
      <trkpt lat="49.89086" lon="3.05877">
        <ele>95</ele>
        <time>2021-10-05T17:59:55+02:00</time>
      </trkpt>
      <trkpt lat="49.89038" lon="3.06121">
        <ele>95</ele>
        <time>2021-10-05T18:00:00+02:00</time>
      </trkpt>
      <trkpt lat="49.89045" lon="3.06429">
        <ele>94</ele>
        <time>2021-10-05T18:00:05+02:00</time>
      </trkpt>
      <trkpt lat="49.88785" lon="3.06495">
        <ele>95</ele>
        <time>2021-10-05T18:00:10+02:00</time>
      </trkpt>
      <trkpt lat="49.88672" lon="3.06598">
        <ele>93</ele>
        <time>2021-10-05T18:00:15+02:00</time>
      </trkpt>
      <trkpt lat="49.88408" lon="3.06652">
        <ele>95</ele>
        <time>2021-10-05T18:00:20+02:00</time>
      </trkpt>
      <trkpt lat="49.88167" lon="3.06426">
        <ele>92</ele>
        <time>2021-10-05T18:00:25+02:00</time>
      </trkpt>
      <trkpt lat="49.87841" lon="3.0623">
        <ele>92</ele>
        <time>2021-10-05T18:00:30+02:00</time>
      </trkpt>
      <trkpt lat="49.87678" lon="3.06242">
        <ele>93</ele>
        <time>2021-10-05T18:00:35+02:00</time>
      </trkpt>
      <trkpt lat="49.87456" lon="3.06238">
        <ele>93</ele>
        <time>2021-10-05T18:00:40+02:00</time>
      </trkpt>
      <trkpt lat="49.87361" lon="3.06242">
        <ele>93</ele>
        <time>2021-10-05T18:00:45+02:00</time>
      </trkpt>
      <trkpt lat="49.87089" lon="3.06188">
        <ele>90</ele>
        <time>2021-10-05T18:00:50+02:00</time>
      </trkpt>
      <trkpt lat="49.8694" lon="3.06258">
        <ele>88</ele>
        <time>2021-10-05T18:00:55+02:00</time>
      </trkpt>
      <trkpt lat="49.86807" lon="3.06345">
        <ele>87</ele>
        <time>2021-10-05T18:01:00+02:00</time>
      </trkpt>
      <trkpt lat="49.86589" lon="3.06633">
        <ele>88</ele>
        <time>2021-10-05T18:01:05+02:00</time>
      </trkpt>
      <trkpt lat="49.8628" lon="3.06858">
        <ele>77</ele>
        <time>2021-10-05T18:01:10+02:00</time>
      </trkpt>
      <trkpt lat="49.86196" lon="3.07042">
        <ele>70</ele>
        <time>2021-10-05T18:01:15+02:00</time>
      </trkpt>
      <trkpt lat="49.86209" lon="3.073">
        <ele>67</ele>
        <time>2021-10-05T18:01:20+02:00</time>
      </trkpt>
      <trkpt lat="49.86239" lon="3.07474">
        <ele>63</ele>
        <time>2021-10-05T18:01:25+02:00</time>
      </trkpt>
      <trkpt lat="49.86202" lon="3.07711">
        <ele>66</ele>
        <time>2021-10-05T18:01:30+02:00</time>
      </trkpt>
      <trkpt lat="49.86252" lon="3.07949">
        <ele>72</ele>
        <time>2021-10-05T18:01:35+02:00</time>
      </trkpt>
      <trkpt lat="49.86138" lon="3.08003">
        <ele>82</ele>
        <time>2021-10-05T18:01:40+02:00</time>
      </trkpt>
      <trkpt lat="49.86012" lon="3.08438">
        <ele>93</ele>
        <time>2021-10-05T18:01:45+02:00</time>
      </trkpt>
      <trkpt lat="49.85838" lon="3.08562">
        <ele>96</ele>
        <time>2021-10-05T18:01:50+02:00</time>
      </trkpt>
      <trkpt lat="49.85954" lon="3.08615">
        <ele>96</ele>
        <time>2021-10-05T18:01:55+02:00</time>
      </trkpt>
      <trkpt lat="49.85909" lon="3.08893">
        <ele>95</ele>
        <time>2021-10-05T18:02:00+02:00</time>
      </trkpt>
      <trkpt lat="49.85838" lon="3.09379">
        <ele>99</ele>
        <time>2021-10-05T18:02:05+02:00</time>
      </trkpt>
      <trkpt lat="49.85745" lon="3.09479">
        <ele>99</ele>
        <time>2021-10-05T18:02:10+02:00</time>
      </trkpt>
      <trkpt lat="49.85751" lon="3.09734">
        <ele>96</ele>
        <time>2021-10-05T18:02:15+02:00</time>
      </trkpt>
      <trkpt lat="49.85507" lon="3.10735">
        <ele>96</ele>
        <time>2021-10-05T18:02:20+02:00</time>
      </trkpt>
      <trkpt lat="49.85382" lon="3.11451">
        <ele>93</ele>
        <time>2021-10-05T18:02:25+02:00</time>
      </trkpt>
      <trkpt lat="49.85326" lon="3.11749">
        <ele>92</ele>
        <time>2021-10-05T18:02:30+02:00</time>
      </trkpt>
      <trkpt lat="49.85324" lon="3.12757">
        <ele>91</ele>
        <time>2021-10-05T18:02:35+02:00</time>
      </trkpt>
      <trkpt lat="49.85486" lon="3.12801">
        <ele>85</ele>
        <time>2021-10-05T18:02:40+02:00</time>
      </trkpt>
      <trkpt lat="49.85626" lon="3.12938">
        <ele>84</ele>
        <time>2021-10-05T18:02:45+02:00</time>
      </trkpt>
      <trkpt lat="49.85758" lon="3.13139">
        <ele>76</ele>
        <time>2021-10-05T18:02:50+02:00</time>
      </trkpt>
      <trkpt lat="49.8574" lon="3.13263">
        <ele>74</ele>
        <time>2021-10-05T18:02:55+02:00</time>
      </trkpt>
      <trkpt lat="49.8579" lon="3.1329">
        <ele>73</ele>
        <time>2021-10-05T18:03:00+02:00</time>
      </trkpt>
      <trkpt lat="49.85674" lon="3.13387">
        <ele>78</ele>
        <time>2021-10-05T18:03:05+02:00</time>
      </trkpt>
      <trkpt lat="49.85604" lon="3.13598">
        <ele>90</ele>
        <time>2021-10-05T18:03:10+02:00</time>
      </trkpt>
      <trkpt lat="49.85453" lon="3.14612">
        <ele>95</ele>
        <time>2021-10-05T18:03:15+02:00</time>
      </trkpt>
      <trkpt lat="49.85464" lon="3.14796">
        <ele>92</ele>
        <time>2021-10-05T18:03:20+02:00</time>
      </trkpt>
      <trkpt lat="49.85466" lon="3.15653">
        <ele>97</ele>
        <time>2021-10-05T18:03:25+02:00</time>
      </trkpt>
      <trkpt lat="49.85596" lon="3.16068">
        <ele>103</ele>
        <time>2021-10-05T18:03:30+02:00</time>
      </trkpt>
      <trkpt lat="49.85589" lon="3.16403">
        <ele>108</ele>
        <time>2021-10-05T18:03:35+02:00</time>
      </trkpt>
      <trkpt lat="49.85535" lon="3.16567">
        <ele>117</ele>
        <time>2021-10-05T18:03:40+02:00</time>
      </trkpt>
      <trkpt lat="49.85602" lon="3.16728">
        <ele>119</ele>
        <time>2021-10-05T18:03:45+02:00</time>
      </trkpt>
      <trkpt lat="49.8544" lon="3.16959">
        <ele>131</ele>
        <time>2021-10-05T18:03:50+02:00</time>
      </trkpt>
      <trkpt lat="49.85348" lon="3.17016">
        <ele>138</ele>
        <time>2021-10-05T18:03:55+02:00</time>
      </trkpt>
      <trkpt lat="49.85296" lon="3.17157">
        <ele>136</ele>
        <time>2021-10-05T18:04:00+02:00</time>
      </trkpt>
      <trkpt lat="49.85246" lon="3.17137">
        <ele>138</ele>
        <time>2021-10-05T18:04:05+02:00</time>
      </trkpt>
      <trkpt lat="49.85177" lon="3.17163">
        <ele>130</ele>
        <time>2021-10-05T18:04:10+02:00</time>
      </trkpt>
      <trkpt lat="49.85032" lon="3.1715">
        <ele>127</ele>
        <time>2021-10-05T18:04:15+02:00</time>
      </trkpt>
      <trkpt lat="49.84814" lon="3.17358">
        <ele>113</ele>
        <time>2021-10-05T18:04:20+02:00</time>
      </trkpt>
      <trkpt lat="49.84672" lon="3.17672">
        <ele>111</ele>
        <time>2021-10-05T18:04:25+02:00</time>
      </trkpt>
      <trkpt lat="49.84342" lon="3.1794">
        <ele>98</ele>
        <time>2021-10-05T18:04:30+02:00</time>
      </trkpt>
      <trkpt lat="49.8408" lon="3.18074">
        <ele>97</ele>
        <time>2021-10-05T18:04:35+02:00</time>
      </trkpt>
      <trkpt lat="49.83374" lon="3.1876">
        <ele>102</ele>
        <time>2021-10-05T18:04:40+02:00</time>
      </trkpt>
      <trkpt lat="49.83316" lon="3.19293">
        <ele>105</ele>
        <time>2021-10-05T18:04:45+02:00</time>
      </trkpt>
      <trkpt lat="49.83324" lon="3.19443">
        <ele>104</ele>
        <time>2021-10-05T18:04:50+02:00</time>
      </trkpt>
      <trkpt lat="49.83301" lon="3.19624">
        <ele>103</ele>
        <time>2021-10-05T18:04:55+02:00</time>
      </trkpt>
      <trkpt lat="49.8327" lon="3.19755">
        <ele>102</ele>
        <time>2021-10-05T18:05:00+02:00</time>
      </trkpt>
      <trkpt lat="49.83342" lon="3.20066">
        <ele>103</ele>
        <time>2021-10-05T18:05:05+02:00</time>
      </trkpt>
      <trkpt lat="49.83452" lon="3.20352">
        <ele>103</ele>
        <time>2021-10-05T18:05:10+02:00</time>
      </trkpt>
      <trkpt lat="49.83491" lon="3.20579">
        <ele>104</ele>
        <time>2021-10-05T18:05:15+02:00</time>
      </trkpt>
      <trkpt lat="49.83606" lon="3.20858">
        <ele>106</ele>
        <time>2021-10-05T18:05:20+02:00</time>
      </trkpt>
      <trkpt lat="49.83675" lon="3.21181">
        <ele>110</ele>
        <time>2021-10-05T18:05:25+02:00</time>
      </trkpt>
      <trkpt lat="49.83982" lon="3.22248">
        <ele>118</ele>
        <time>2021-10-05T18:05:30+02:00</time>
      </trkpt>
      <trkpt lat="49.84054" lon="3.22574">
        <ele>120</ele>
        <time>2021-10-05T18:05:35+02:00</time>
      </trkpt>
      <trkpt lat="49.84135" lon="3.22935">
        <ele>118</ele>
        <time>2021-10-05T18:05:40+02:00</time>
      </trkpt>
      <trkpt lat="49.84252" lon="3.23704">
        <ele>115</ele>
        <time>2021-10-05T18:05:45+02:00</time>
      </trkpt>
      <trkpt lat="49.84298" lon="3.23873">
        <ele>113</ele>
        <time>2021-10-05T18:05:50+02:00</time>
      </trkpt>
      <trkpt lat="49.84426" lon="3.24726">
        <ele>114</ele>
        <time>2021-10-05T18:05:55+02:00</time>
      </trkpt>
      <trkpt lat="49.84798" lon="3.24738">
        <ele>115</ele>
        <time>2021-10-05T18:06:00+02:00</time>
      </trkpt>
      <trkpt lat="49.84953" lon="3.24805">
        <ele>112</ele>
        <time>2021-10-05T18:06:05+02:00</time>
      </trkpt>
      <trkpt lat="49.85112" lon="3.25087">
        <ele>99</ele>
        <time>2021-10-05T18:06:10+02:00</time>
      </trkpt>
      <trkpt lat="49.85191" lon="3.25246">
        <ele>94</ele>
        <time>2021-10-05T18:06:15+02:00</time>
      </trkpt>
      <trkpt lat="49.85201" lon="3.25371">
        <ele>92</ele>
        <time>2021-10-05T18:06:20+02:00</time>
      </trkpt>
      <trkpt lat="49.8536" lon="3.25628">
        <ele>82</ele>
        <time>2021-10-05T18:06:25+02:00</time>
      </trkpt>
      <trkpt lat="49.85437" lon="3.25953">
        <ele>81</ele>
        <time>2021-10-05T18:06:30+02:00</time>
      </trkpt>
      <trkpt lat="49.8547" lon="3.25926">
        <ele>81</ele>
        <time>2021-10-05T18:06:35+02:00</time>
      </trkpt>
    </trkseg>
  </trk>
</gpx>